Champion — WCZ7631 — position and weather

sailwx.info

Track history (hours):
 
Tides and Currents Weather Stations Pressure Air Temp Water Temp Dewpoint Dewpoint Depression Visibility Wind Speed Wind Dir Waves Ship Positions

Champion

Owner: MC CULLEY MARINE SERVICES INC, FORT PIERCE, FL. More information available from US FCC via Universal Licensing System and Coast Guard Vessel Documentation Center.

Last reported at 2017-Jan-30 14:33 UTC. Time now 2017-Feb-22 19:58 UTC.
Position N 27°02' W 079°56'.
Warning: this ship's position is 23 days out of date.

Length 20 m; draft 1.7 m.

Type: Towing. MMSI: 367005250.

Date/timePositionNaut miles runAvg speedWind from/ knotsBaromVisibWave heightAir tempDewpointWater temp
2017-Jan-30 14:33N 27°02' W 079°56'7 7.2
2017-Jan-30 13:33N 26°55' W 079°56'31 7.3
2017-Jan-30 09:18N 26°24' W 079°55'5 7.0
2017-Jan-30 08:33N 26°19' W 079°54'7 6.9
2017-Jan-30 07:33N 26°12' W 079°53'6 6.3
2017-Jan-30 06:33N 26°07' W 079°50'6 5.9
2017-Jan-30 05:33N 26°02' W 079°45'  
2017-Jan-27 19:10N 25°48' W 079°37'3 4.8
2017-Jan-27 18:33N 25°49' W 079°40'5 4.6
2017-Jan-27 17:33N 25°50' W 079°45'4 4.4
2017-Jan-27 16:33N 25°50' W 079°50'5 4.5
2017-Jan-27 15:33N 25°50' W 079°55'5 4.8
2017-Jan-27 14:33N 25°51' W 080°01'5 5.1
2017-Jan-27 13:33N 25°53' W 080°06'6 5.7
2017-Jan-27 12:33N 25°58' W 080°06'6 5.7
2017-Jan-27 11:33N 26°04' W 080°05'6 6.2
2017-Jan-27 10:33N 26°10' W 080°04'5 5.1
2017-Jan-27 09:33N 26°15' W 080°04'6 5.5
2017-Jan-27 08:33N 26°21' W 080°03'5 5.0
2017-Jan-27 07:33N 26°26' W 080°02'4 4.1
2017-Jan-27 06:32N 26°30' W 080°02'20 4.0
2017-Jan-27 01:33N 26°50' W 080°01'5 4.5
2017-Jan-27 00:33N 26°54' W 080°02'5 4.7
2017-Jan-26 23:33N 26°59' W 080°04'  
2017-Jan-20 16:33N 27°02' W 079°55'7 7.4
2017-Jan-20 15:33N 26°55' W 079°53'  
Track history (hours):
 
Tides and Currents Weather Stations Pressure Air Temp Water Temp Dewpoint Dewpoint Depression Visibility Wind Speed Wind Dir Waves Ship Positions

Champion

Owner: MC CULLEY MARINE SERVICES INC, FORT PIERCE, FL. More information available from US FCC via Universal Licensing System and Coast Guard Vessel Documentation Center.

Last reported at 2017-Jan-30 14:33 UTC. Time now 2017-Feb-22 19:58 UTC.
Position N 27°02' W 079°56'.
Warning: this ship's position is 23 days out of date.

Length 20 m; draft 1.7 m.

Type: Towing. MMSI: 367005250.

Date/timePositionNaut miles runAvg speedWind from/ knotsBaromVisibWave heightAir tempDewpointWater temp
2017-Jan-30 14:33N 27°02' W 079°56'7 7.2
2017-Jan-30 13:33N 26°55' W 079°56'31 7.3
2017-Jan-30 09:18N 26°24' W 079°55'5 7.0
2017-Jan-30 08:33N 26°19' W 079°54'7 6.9
2017-Jan-30 07:33N 26°12' W 079°53'6 6.3
2017-Jan-30 06:33N 26°07' W 079°50'6 5.9
2017-Jan-30 05:33N 26°02' W 079°45'  
2017-Jan-27 19:10N 25°48' W 079°37'3 4.8
2017-Jan-27 18:33N 25°49' W 079°40'5 4.6
2017-Jan-27 17:33N 25°50' W 079°45'4 4.4
2017-Jan-27 16:33N 25°50' W 079°50'5 4.5
2017-Jan-27 15:33N 25°50' W 079°55'5 4.8
2017-Jan-27 14:33N 25°51' W 080°01'5 5.1
2017-Jan-27 13:33N 25°53' W 080°06'6 5.7
2017-Jan-27 12:33N 25°58' W 080°06'6 5.7
2017-Jan-27 11:33N 26°04' W 080°05'6 6.2
2017-Jan-27 10:33N 26°10' W 080°04'5 5.1
2017-Jan-27 09:33N 26°15' W 080°04'6 5.5
2017-Jan-27 08:33N 26°21' W 080°03'5 5.0
2017-Jan-27 07:33N 26°26' W 080°02'4 4.1
2017-Jan-27 06:32N 26°30' W 080°02'20 4.0
2017-Jan-27 01:33N 26°50' W 080°01'5 4.5
2017-Jan-27 00:33N 26°54' W 080°02'5 4.7
2017-Jan-26 23:33N 26°59' W 080°04'  
2017-Jan-20 16:33N 27°02' W 079°55'7 7.4
2017-Jan-20 15:33N 26°55' W 079°53'  

Dump ship's entire track history